sensor_id;sensor_type;location;lat;lon;timestamp;pressure;altitude;pressure_sealevel;temperature;humidity
67015;BME280;1033;52.560;13.374;2022-10-16T00:00:15;100624.41;;;15.47;95.48
67015;BME280;1033;52.560;13.374;2022-10-16T00:02:44;100626.88;;;15.60;95.32
67015;BME280;1033;52.560;13.374;2022-10-16T00:05:18;100621.19;;;15.73;93.98
67015;BME280;1033;52.560;13.374;2022-10-16T00:07:46;100628.66;;;15.94;93.23
67015;BME280;1033;52.560;13.374;2022-10-16T00:10:17;100631.16;;;15.96;92.69
67015;BME280;1033;52.560;13.374;2022-10-16T00:12:45;100629.19;;;16.08;91.59
67015;BME280;1033;52.560;13.374;2022-10-16T00:15:16;100634.31;;;16.04;91.50
67015;BME280;1033;52.560;13.374;2022-10-16T00:17:45;100634.81;;;16.01;91.44
67015;BME280;1033;52.560;13.374;2022-10-16T00:20:14;100628.19;;;15.97;91.88
67015;BME280;1033;52.560;13.374;2022-10-16T00:22:43;100628.56;;;15.89;92.55
67015;BME280;1033;52.560;13.374;2022-10-16T00:25:12;100640.56;;;15.88;92.58
67015;BME280;1033;52.560;13.374;2022-10-16T00:27:42;100641.22;;;16.07;91.82
67015;BME280;1033;52.560;13.374;2022-10-16T00:30:11;100647.75;;;16.06;91.14
67015;BME280;1033;52.560;13.374;2022-10-16T00:32:40;100641.69;;;16.04;91.49
67015;BME280;1033;52.560;13.374;2022-10-16T00:35:09;100655.97;;;15.94;92.11
67015;BME280;1033;52.560;13.374;2022-10-16T00:37:38;100657.81;;;16.05;91.38
67015;BME280;1033;52.560;13.374;2022-10-16T00:40:08;100663.19;;;16.00;92.04
67015;BME280;1033;52.560;13.374;2022-10-16T00:42:37;100655.97;;;15.94;92.21
67015;BME280;1033;52.560;13.374;2022-10-16T00:45:10;100653.63;;;15.86;92.46
67015;BME280;1033;52.560;13.374;2022-10-16T00:47:43;100647.63;;;15.73;93.16
67015;BME280;1033;52.560;13.374;2022-10-16T00:50:24;100652.09;;;15.79;93.43
67015;BME280;1033;52.560;13.374;2022-10-16T00:52:56;100650.75;;;15.93;92.82
67015;BME280;1033;52.560;13.374;2022-10-16T00:55:26;100651.97;;;15.85;93.39
67015;BME280;1033;52.560;13.374;2022-10-16T00:57:58;100646.00;;;15.88;92.74
67015;BME280;1033;52.560;13.374;2022-10-16T01:00:28;100661.41;;;15.94;92.90
67015;BME280;1033;52.560;13.374;2022-10-16T01:02:59;100661.75;;;15.98;92.45
67015;BME280;1033;52.560;13.374;2022-10-16T01:05:39;100659.19;;;15.91;92.73
67015;BME280;1033;52.560;13.374;2022-10-16T01:08:18;100659.28;;;15.96;92.95
67015;BME280;1033;52.560;13.374;2022-10-16T01:10:59;100662.38;;;15.88;92.81
67015;BME280;1033;52.560;13.374;2022-10-16T01:13:36;100672.63;;;15.81;93.43
67015;BME280;1033;52.560;13.374;2022-10-16T01:16:14;100663.22;;;15.89;93.04
67015;BME280;1033;52.560;13.374;2022-10-16T01:18:53;100669.06;;;15.81;93.26
67015;BME280;1033;52.560;13.374;2022-10-16T01:21:28;100676.03;;;15.88;93.31
67015;BME280;1033;52.560;13.374;2022-10-16T01:24:08;100676.63;;;15.90;93.40
67015;BME280;1033;52.560;13.374;2022-10-16T01:27:06;100672.72;;;15.86;93.69
67015;BME280;1033;52.560;13.374;2022-10-16T01:29:48;100675.56;;;15.91;93.54
67015;BME280;1033;52.560;13.374;2022-10-16T01:32:23;100675.47;;;15.86;93.70
67015;BME280;1033;52.560;13.374;2022-10-16T01:35:02;100680.41;;;15.89;93.24
67015;BME280;1033;52.560;13.374;2022-10-16T01:37:39;100680.50;;;16.06;92.35
67015;BME280;1033;52.560;13.374;2022-10-16T01:40:12;100688.72;;;15.94;92.92
67015;BME280;1033;52.560;13.374;2022-10-16T01:42:51;100690.50;;;15.89;93.47
67015;BME280;1033;52.560;13.374;2022-10-16T01:45:22;100694.38;;;16.04;92.52
67015;BME280;1033;52.560;13.374;2022-10-16T01:47:52;100688.81;;;15.99;92.83
67015;BME280;1033;52.560;13.374;2022-10-16T01:50:22;100693.69;;;15.97;92.67
67015;BME280;1033;52.560;13.374;2022-10-16T01:52:55;100692.06;;;15.85;93.50
67015;BME280;1033;52.560;13.374;2022-10-16T01:55:32;100690.66;;;15.82;93.79
67015;BME280;1033;52.560;13.374;2022-10-16T01:58:08;100686.25;;;15.81;94.32
67015;BME280;1033;52.560;13.374;2022-10-16T02:00:41;100692.09;;;15.73;94.49
67015;BME280;1033;52.560;13.374;2022-10-16T02:03:15;100688.28;;;15.74;95.04
67015;BME280;1033;52.560;13.374;2022-10-16T02:05:49;100693.75;;;15.74;94.60
67015;BME280;1033;52.560;13.374;2022-10-16T02:08:21;100706.03;;;15.88;93.96
67015;BME280;1033;52.560;13.374;2022-10-16T02:10:51;100711.81;;;16.03;92.86
67015;BME280;1033;52.560;13.374;2022-10-16T02:13:27;100710.88;;;15.98;92.95
67015;BME280;1033;52.560;13.374;2022-10-16T02:15:58;100705.69;;;15.96;93.01
67015;BME280;1033;52.560;13.374;2022-10-16T02:18:27;100717.03;;;16.05;92.53
67015;BME280;1033;52.560;13.374;2022-10-16T02:21:02;100734.88;;;15.96;93.18
67015;BME280;1033;52.560;13.374;2022-10-16T02:23:45;100737.72;;;16.01;92.93
67015;BME280;1033;52.560;13.374;2022-10-16T02:26:28;100729.75;;;15.99;92.52
67015;BME280;1033;52.560;13.374;2022-10-16T02:29:06;100722.53;;;15.93;93.14
67015;BME280;1033;52.560;13.374;2022-10-16T02:31:45;100725.16;;;15.88;93.22
67015;BME280;1033;52.560;13.374;2022-10-16T02:34:18;100725.72;;;16.02;92.64
67015;BME280;1033;52.560;13.374;2022-10-16T02:36:50;100726.41;;;16.09;92.17
67015;BME280;1033;52.560;13.374;2022-10-16T02:39:21;100737.56;;;16.07;91.75
67015;BME280;1033;52.560;13.374;2022-10-16T02:41:50;100744.00;;;16.01;92.32
67015;BME280;1033;52.560;13.374;2022-10-16T02:44:20;100736.06;;;15.88;92.71
67015;BME280;1033;52.560;13.374;2022-10-16T02:46:49;100733.94;;;15.90;92.98
67015;BME280;1033;52.560;13.374;2022-10-16T02:49:18;100739.50;;;15.95;92.33
67015;BME280;1033;52.560;13.374;2022-10-16T02:51:46;100743.78;;;15.91;92.91
67015;BME280;1033;52.560;13.374;2022-10-16T02:54:15;100736.75;;;15.95;92.12
67015;BME280;1033;52.560;13.374;2022-10-16T02:56:44;100738.31;;;15.91;92.57
67015;BME280;1033;52.560;13.374;2022-10-16T02:59:12;100737.63;;;15.84;92.28
67015;BME280;1033;52.560;13.374;2022-10-16T03:01:42;100736.81;;;15.72;93.35
67015;BME280;1033;52.560;13.374;2022-10-16T03:04:11;100738.72;;;15.72;93.60
67015;BME280;1033;52.560;13.374;2022-10-16T03:06:40;100734.09;;;15.49;94.53
67015;BME280;1033;52.560;13.374;2022-10-16T03:09:08;100741.34;;;15.55;94.73
67015;BME280;1033;52.560;13.374;2022-10-16T03:11:37;100742.63;;;15.41;94.98
67015;BME280;1033;52.560;13.374;2022-10-16T03:14:06;100748.31;;;15.28;95.51
67015;BME280;1033;52.560;13.374;2022-10-16T03:16:35;100754.34;;;15.18;96.59
67015;BME280;1033;52.560;13.374;2022-10-16T03:19:05;100747.81;;;15.07;97.50
67015;BME280;1033;52.560;13.374;2022-10-16T03:21:34;100747.56;;;14.97;98.56
67015;BME280;1033;52.560;13.374;2022-10-16T03:24:03;100761.31;;;15.02;98.90
67015;BME280;1033;52.560;13.374;2022-10-16T03:26:32;100759.88;;;14.88;99.04
67015;BME280;1033;52.560;13.374;2022-10-16T03:29:01;100768.38;;;14.80;99.71
67015;BME280;1033;52.560;13.374;2022-10-16T03:31:30;100758.06;;;14.70;100.00
67015;BME280;1033;52.560;13.374;2022-10-16T03:33:59;100769.16;;;14.69;100.00
67015;BME280;1033;52.560;13.374;2022-10-16T03:36:34;100773.56;;;14.70;100.00
67015;BME280;1033;52.560;13.374;2022-10-16T03:39:03;100776.16;;;14.65;100.00
67015;BME280;1033;52.560;13.374;2022-10-16T03:41:32;100769.78;;;14.71;100.00
67015;BME280;1033;52.560;13.374;2022-10-16T03:44:00;100780.81;;;14.76;100.00
67015;BME280;1033;52.560;13.374;2022-10-16T03:46:29;100779.44;;;14.67;100.00
67015;BME280;1033;52.560;13.374;2022-10-16T03:48:58;100780.41;;;14.61;100.00
67015;BME280;1033;52.560;13.374;2022-10-16T03:51:27;100787.97;;;14.59;100.00
67015;BME280;1033;52.560;13.374;2022-10-16T03:53:57;100804.38;;;14.82;100.00
67015;BME280;1033;52.560;13.374;2022-10-16T03:56:26;100806.53;;;14.80;100.00
67015;BME280;1033;52.560;13.374;2022-10-16T03:58:54;100803.66;;;14.75;100.00
67015;BME280;1033;52.560;13.374;2022-10-16T04:01:24;100804.38;;;14.82;100.00
67015;BME280;1033;52.560;13.374;2022-10-16T04:03:53;100808.63;;;14.78;100.00
67015;BME280;1033;52.560;13.374;2022-10-16T04:06:22;100802.59;;;14.76;100.00
67015;BME280;1033;52.560;13.374;2022-10-16T04:08:50;100803.94;;;14.85;100.00
67015;BME280;1033;52.560;13.374;2022-10-16T04:11:20;100813.69;;;15.04;100.00
67015;BME280;1033;52.560;13.374;2022-10-16T04:13:49;100819.47;;;14.96;100.00
67015;BME280;1033;52.560;13.374;2022-10-16T04:16:17;100818.28;;;14.92;100.00
67015;BME280;1033;52.560;13.374;2022-10-16T04:18:46;100822.94;;;15.03;100.00
67015;BME280;1033;52.560;13.374;2022-10-16T04:21:15;100817.34;;;14.98;100.00
67015;BME280;1033;52.560;13.374;2022-10-16T04:23:44;100817.69;;;14.90;100.00
67015;BME280;1033;52.560;13.374;2022-10-16T04:26:13;100817.88;;;14.77;100.00
67015;BME280;1033;52.560;13.374;2022-10-16T04:28:43;100812.53;;;14.70;100.00
67015;BME280;1033;52.560;13.374;2022-10-16T04:31:12;100818.97;;;14.88;100.00
67015;BME280;1033;52.560;13.374;2022-10-16T04:33:42;100804.84;;;14.79;100.00
67015;BME280;1033;52.560;13.374;2022-10-16T04:36:12;100801.91;;;14.81;100.00
67015;BME280;1033;52.560;13.374;2022-10-16T04:38:40;100808.97;;;14.70;100.00
67015;BME280;1033;52.560;13.374;2022-10-16T04:41:09;100806.59;;;14.73;100.00
67015;BME280;1033;52.560;13.374;2022-10-16T04:43:38;100806.75;;;14.78;100.00
67015;BME280;1033;52.560;13.374;2022-10-16T04:46:08;100803.19;;;14.78;100.00
67015;BME280;1033;52.560;13.374;2022-10-16T04:48:37;100794.03;;;14.61;100.00
67015;BME280;1033;52.560;13.374;2022-10-16T04:51:06;100791.84;;;14.51;100.00
67015;BME280;1033;52.560;13.374;2022-10-16T04:53:35;100791.09;;;14.44;100.00
67015;BME280;1033;52.560;13.374;2022-10-16T04:56:04;100796.66;;;14.38;100.00
67015;BME280;1033;52.560;13.374;2022-10-16T04:58:33;100797.06;;;14.34;100.00
67015;BME280;1033;52.560;13.374;2022-10-16T05:01:02;100800.47;;;14.30;100.00
67015;BME280;1033;52.560;13.374;2022-10-16T05:03:32;100798.22;;;14.27;100.00
67015;BME280;1033;52.560;13.374;2022-10-16T05:06:01;100815.13;;;14.29;100.00
67015;BME280;1033;52.560;13.374;2022-10-16T05:08:31;100818.94;;;14.46;100.00
67015;BME280;1033;52.560;13.374;2022-10-16T05:11:03;100831.09;;;14.44;100.00
67015;BME280;1033;52.560;13.374;2022-10-16T05:13:32;100832.44;;;14.34;100.00
67015;BME280;1033;52.560;13.374;2022-10-16T05:16:01;100838.19;;;14.26;100.00
67015;BME280;1033;52.560;13.374;2022-10-16T05:18:31;100836.38;;;14.20;100.00
67015;BME280;1033;52.560;13.374;2022-10-16T05:21:00;100834.97;;;14.18;100.00
67015;BME280;1033;52.560;13.374;2022-10-16T05:23:29;100839.09;;;14.20;100.00
67015;BME280;1033;52.560;13.374;2022-10-16T05:26:00;100839.41;;;14.30;100.00
67015;BME280;1033;52.560;13.374;2022-10-16T05:28:30;100833.94;;;14.37;100.00
67015;BME280;1033;52.560;13.374;2022-10-16T05:30:58;100835.50;;;14.45;100.00
67015;BME280;1033;52.560;13.374;2022-10-16T05:33:28;100833.81;;;14.44;100.00
67015;BME280;1033;52.560;13.374;2022-10-16T05:36:01;100829.31;;;14.38;100.00
67015;BME280;1033;52.560;13.374;2022-10-16T05:38:30;100835.63;;;14.50;100.00
67015;BME280;1033;52.560;13.374;2022-10-16T05:40:59;100846.59;;;14.61;100.00
67015;BME280;1033;52.560;13.374;2022-10-16T05:43:29;100859.41;;;14.72;100.00
67015;BME280;1033;52.560;13.374;2022-10-16T05:46:00;100850.09;;;14.80;100.00
67015;BME280;1033;52.560;13.374;2022-10-16T05:48:31;100858.97;;;14.75;100.00
67015;BME280;1033;52.560;13.374;2022-10-16T05:51:04;100867.19;;;14.87;100.00
67015;BME280;1033;52.560;13.374;2022-10-16T05:53:36;100857.47;;;14.91;100.00
67015;BME280;1033;52.560;13.374;2022-10-16T05:56:06;100854.09;;;15.07;100.00
67015;BME280;1033;52.560;13.374;2022-10-16T05:58:38;100855.91;;;15.13;100.00
67015;BME280;1033;52.560;13.374;2022-10-16T06:01:11;100858.63;;;15.13;99.49
67015;BME280;1033;52.560;13.374;2022-10-16T06:03:41;100860.19;;;15.21;99.15
67015;BME280;1033;52.560;13.374;2022-10-16T06:06:13;100856.53;;;15.27;98.30
67015;BME280;1033;52.560;13.374;2022-10-16T06:08:44;100860.44;;;15.19;98.03
67015;BME280;1033;52.560;13.374;2022-10-16T06:11:18;100871.91;;;15.21;98.67
67015;BME280;1033;52.560;13.374;2022-10-16T06:13:50;100877.13;;;15.53;96.34
67015;BME280;1033;52.560;13.374;2022-10-16T06:16:20;100880.00;;;15.40;96.63
67015;BME280;1033;52.560;13.374;2022-10-16T06:18:50;100880.00;;;15.40;96.94
67015;BME280;1033;52.560;13.374;2022-10-16T06:21:23;100869.00;;;15.46;96.58
67015;BME280;1033;52.560;13.374;2022-10-16T06:23:54;100873.50;;;15.41;96.26
67015;BME280;1033;52.560;13.374;2022-10-16T06:26:26;100873.56;;;15.64;94.96
67015;BME280;1033;52.560;13.374;2022-10-16T06:28:57;100881.63;;;15.59;95.07
67015;BME280;1033;52.560;13.374;2022-10-16T06:31:27;100885.44;;;15.58;95.26
67015;BME280;1033;52.560;13.374;2022-10-16T06:33:58;100896.91;;;15.60;95.38
67015;BME280;1033;52.560;13.374;2022-10-16T06:36:29;100900.13;;;15.57;95.51
67015;BME280;1033;52.560;13.374;2022-10-16T06:38:57;100904.66;;;15.63;95.14
67015;BME280;1033;52.560;13.374;2022-10-16T06:41:26;100904.66;;;15.75;94.24
67015;BME280;1033;52.560;13.374;2022-10-16T06:43:56;100905.03;;;16.01;92.04
67015;BME280;1033;52.560;13.374;2022-10-16T06:46:26;100910.81;;;15.93;91.94
67015;BME280;1033;52.560;13.374;2022-10-16T06:48:56;100916.28;;;16.05;91.96
67015;BME280;1033;52.560;13.374;2022-10-16T06:51:25;100923.06;;;16.14;91.23
67015;BME280;1033;52.560;13.374;2022-10-16T06:53:56;100908.69;;;16.30;89.55
67015;BME280;1033;52.560;13.374;2022-10-16T06:56:32;100911.53;;;16.24;90.00
67015;BME280;1033;52.560;13.374;2022-10-16T06:59:01;100910.59;;;16.30;89.99
67015;BME280;1033;52.560;13.374;2022-10-16T07:01:31;100922.66;;;16.57;88.40
67015;BME280;1033;52.560;13.374;2022-10-16T07:04:01;100932.03;;;16.73;86.93
67015;BME280;1033;52.560;13.374;2022-10-16T07:06:32;100931.31;;;16.66;87.30
67015;BME280;1033;52.560;13.374;2022-10-16T07:09:05;100936.53;;;16.56;88.17
67015;BME280;1033;52.560;13.374;2022-10-16T07:11:35;100944.63;;;16.74;87.22
67015;BME280;1033;52.560;13.374;2022-10-16T07:14:04;100950.66;;;16.87;86.73
67015;BME280;1033;52.560;13.374;2022-10-16T07:16:34;100961.19;;;16.95;86.55
67015;BME280;1033;52.560;13.374;2022-10-16T07:19:03;100961.91;;;17.03;85.57
67015;BME280;1033;52.560;13.374;2022-10-16T07:21:34;100958.34;;;17.02;85.37
67015;BME280;1033;52.560;13.374;2022-10-16T07:24:07;100941.22;;;16.95;85.50
67015;BME280;1033;52.560;13.374;2022-10-16T07:26:40;100938.75;;;16.93;86.07
67015;BME280;1033;52.560;13.374;2022-10-16T07:29:14;100943.63;;;17.20;85.25
67015;BME280;1033;52.560;13.374;2022-10-16T07:31:44;100942.50;;;17.32;84.06
67015;BME280;1033;52.560;13.374;2022-10-16T07:34:16;100948.09;;;17.54;83.00
67015;BME280;1033;52.560;13.374;2022-10-16T07:36:48;100934.56;;;17.48;83.21
67015;BME280;1033;52.560;13.374;2022-10-16T07:39:19;100942.69;;;17.71;82.05
67015;BME280;1033;52.560;13.374;2022-10-16T07:41:48;100949.72;;;17.67;82.20
67015;BME280;1033;52.560;13.374;2022-10-16T07:44:17;100954.56;;;17.76;82.18
67015;BME280;1033;52.560;13.374;2022-10-16T07:46:46;100963.84;;;17.75;82.08
67015;BME280;1033;52.560;13.374;2022-10-16T07:49:16;100953.03;;;17.69;82.05
67015;BME280;1033;52.560;13.374;2022-10-16T07:51:45;100952.28;;;17.73;82.08
67015;BME280;1033;52.560;13.374;2022-10-16T07:54:14;100950.41;;;17.91;80.89
67015;BME280;1033;52.560;13.374;2022-10-16T07:56:44;100951.53;;;17.78;81.02
67015;BME280;1033;52.560;13.374;2022-10-16T07:59:14;100950.72;;;17.61;81.92
67015;BME280;1033;52.560;13.374;2022-10-16T08:01:43;100966.97;;;17.67;81.77
67015;BME280;1033;52.560;13.374;2022-10-16T08:04:12;100970.72;;;17.78;81.40
67015;BME280;1033;52.560;13.374;2022-10-16T08:06:41;100981.00;;;17.71;82.12
67015;BME280;1033;52.560;13.374;2022-10-16T08:09:10;100988.56;;;17.52;83.05
67015;BME280;1033;52.560;13.374;2022-10-16T08:11:39;100988.94;;;17.72;82.86
67015;BME280;1033;52.560;13.374;2022-10-16T08:14:10;100991.94;;;17.88;81.77
67015;BME280;1033;52.560;13.374;2022-10-16T08:16:39;100990.56;;;17.85;81.15
67015;BME280;1033;52.560;13.374;2022-10-16T08:19:08;100994.22;;;17.91;81.59
67015;BME280;1033;52.560;13.374;2022-10-16T08:21:37;100994.78;;;17.93;80.86
67015;BME280;1033;52.560;13.374;2022-10-16T08:24:06;100981.59;;;17.90;81.06
67015;BME280;1033;52.560;13.374;2022-10-16T08:26:36;100978.94;;;17.95;80.51
67015;BME280;1033;52.560;13.374;2022-10-16T08:29:05;100983.34;;;17.96;80.37
67015;BME280;1033;52.560;13.374;2022-10-16T08:31:35;100989.88;;;17.95;80.58
67015;BME280;1033;52.560;13.374;2022-10-16T08:34:04;100997.69;;;18.03;80.75
67015;BME280;1033;52.560;13.374;2022-10-16T08:36:36;100999.34;;;18.04;80.33
67015;BME280;1033;52.560;13.374;2022-10-16T08:39:05;101001.50;;;18.02;79.70
67015;BME280;1033;52.560;13.374;2022-10-16T08:41:59;100994.19;;;18.07;80.29
67015;BME280;1033;52.560;13.374;2022-10-16T08:48:05;100996.16;;;18.45;78.61
67015;BME280;1033;52.560;13.374;2022-10-16T08:51:06;100998.06;;;18.61;77.20
67015;BME280;1033;52.560;13.374;2022-10-16T08:53:40;100990.94;;;18.60;77.11
67015;BME280;1033;52.560;13.374;2022-10-16T08:56:12;101008.28;;;18.66;77.34
67015;BME280;1033;52.560;13.374;2022-10-16T08:58:41;101001.50;;;18.74;76.64
67015;BME280;1033;52.560;13.374;2022-10-16T09:01:14;101015.84;;;18.97;75.49
67015;BME280;1033;52.560;13.374;2022-10-16T09:03:54;101020.56;;;19.02;75.55
67015;BME280;1033;52.560;13.374;2022-10-16T09:06:37;101022.09;;;19.15;75.11
67015;BME280;1033;52.560;13.374;2022-10-16T09:09:29;101026.88;;;19.24;74.40
67015;BME280;1033;52.560;13.374;2022-10-16T09:12:07;101024.41;;;19.44;74.10
67015;BME280;1033;52.560;13.374;2022-10-16T09:14:50;101030.25;;;19.80;71.91
67015;BME280;1033;52.560;13.374;2022-10-16T09:17:30;101033.34;;;19.62;72.59
67015;BME280;1033;52.560;13.374;2022-10-16T09:23:14;101026.13;;;19.50;72.77
67015;BME280;1033;52.560;13.374;2022-10-16T09:25:46;101029.94;;;19.49;73.30
67015;BME280;1033;52.560;13.374;2022-10-16T09:28:18;101027.97;;;19.45;73.60
67015;BME280;1033;52.560;13.374;2022-10-16T09:30:48;101028.59;;;19.30;73.69
67015;BME280;1033;52.560;13.374;2022-10-16T09:33:21;101035.97;;;19.08;73.83
67015;BME280;1033;52.560;13.374;2022-10-16T09:35:56;101025.91;;;19.14;74.18
67015;BME280;1033;52.560;13.374;2022-10-16T09:38:28;101039.94;;;19.17;74.35
67015;BME280;1033;52.560;13.374;2022-10-16T09:40:59;101032.47;;;19.13;74.31
67015;BME280;1033;52.560;13.374;2022-10-16T09:43:35;101041.59;;;19.18;73.84
67015;BME280;1033;52.560;13.374;2022-10-16T09:46:19;101046.84;;;19.20;73.55
67015;BME280;1033;52.560;13.374;2022-10-16T09:48:51;101054.34;;;19.07;73.90
67015;BME280;1033;52.560;13.374;2022-10-16T09:51:26;101066.59;;;19.00;74.00
67015;BME280;1033;52.560;13.374;2022-10-16T09:53:58;101071.41;;;18.93;75.00
67015;BME280;1033;52.560;13.374;2022-10-16T09:56:29;101061.31;;;19.15;73.97
67015;BME280;1033;52.560;13.374;2022-10-16T09:59:01;101059.81;;;19.07;73.41
67015;BME280;1033;52.560;13.374;2022-10-16T10:01:36;101066.72;;;19.32;72.72
67015;BME280;1033;52.560;13.374;2022-10-16T10:04:06;101065.97;;;19.58;72.12
67015;BME280;1033;52.560;13.374;2022-10-16T10:06:42;101067.81;;;20.01;71.22
67015;BME280;1033;52.560;13.374;2022-10-16T10:09:18;101076.97;;;20.12;69.31
67015;BME280;1033;52.560;13.374;2022-10-16T10:11:51;101082.56;;;19.95;69.21
67015;BME280;1033;52.560;13.374;2022-10-16T10:14:23;101075.72;;;19.71;69.96
67015;BME280;1033;52.560;13.374;2022-10-16T10:17:09;101075.22;;;19.74;70.45
67015;BME280;1033;52.560;13.374;2022-10-16T10:19:40;101076.97;;;19.58;70.50
67015;BME280;1033;52.560;13.374;2022-10-16T10:22:24;101082.22;;;19.60;70.61
67015;BME280;1033;52.560;13.374;2022-10-16T10:25:15;101085.97;;;19.53;71.01
67015;BME280;1033;52.560;13.374;2022-10-16T10:27:59;101072.72;;;19.72;70.35
67015;BME280;1033;52.560;13.374;2022-10-16T10:30:38;101091.06;;;19.67;70.46
67015;BME280;1033;52.560;13.374;2022-10-16T10:33:18;101099.47;;;19.82;69.84
67015;BME280;1033;52.560;13.374;2022-10-16T10:35:54;101103.19;;;19.71;69.72
67015;BME280;1033;52.560;13.374;2022-10-16T10:38:37;101110.75;;;19.59;70.52
67015;BME280;1033;52.560;13.374;2022-10-16T10:41:19;101118.31;;;19.73;70.47
67015;BME280;1033;52.560;13.374;2022-10-16T10:44:04;101114.28;;;19.81;69.56
67015;BME280;1033;52.560;13.374;2022-10-16T10:46:41;101114.00;;;20.04;68.49
67015;BME280;1033;52.560;13.374;2022-10-16T10:49:34;101102.78;;;20.11;68.64
67015;BME280;1033;52.560;13.374;2022-10-16T10:52:24;101104.75;;;20.42;67.28
67015;BME280;1033;52.560;13.374;2022-10-16T10:55:03;101106.56;;;20.63;66.25
67015;BME280;1033;52.560;13.374;2022-10-16T10:57:41;101106.56;;;21.00;64.79
67015;BME280;1033;52.560;13.374;2022-10-16T11:00:21;101107.28;;;21.28;63.48
67015;BME280;1033;52.560;13.374;2022-10-16T11:03:02;101109.00;;;21.39;62.57
67015;BME280;1033;52.560;13.374;2022-10-16T11:05:41;101112.66;;;21.12;63.00
67015;BME280;1033;52.560;13.374;2022-10-16T11:08:16;101110.03;;;20.86;63.68
67015;BME280;1033;52.560;13.374;2022-10-16T11:10:50;101109.66;;;20.72;63.33
67015;BME280;1033;52.560;13.374;2022-10-16T11:13:28;101104.69;;;20.69;63.83
67015;BME280;1033;52.560;13.374;2022-10-16T11:16:02;101109.94;;;20.70;63.50
67015;BME280;1033;52.560;13.374;2022-10-16T11:18:40;101111.91;;;20.80;63.33
67015;BME280;1033;52.560;13.374;2022-10-16T11:21:14;101108.59;;;20.78;62.79
67015;BME280;1033;52.560;13.374;2022-10-16T11:23:51;101116.03;;;20.82;62.77
67015;BME280;1033;52.560;13.374;2022-10-16T11:26:26;101106.19;;;20.50;63.46
67015;BME280;1033;52.560;13.374;2022-10-16T11:28:57;101109.88;;;20.33;63.57
67015;BME280;1033;52.560;13.374;2022-10-16T11:31:32;101108.06;;;20.17;63.49
67015;BME280;1033;52.560;13.374;2022-10-16T11:34:09;101099.03;;;19.95;63.92
67015;BME280;1033;52.560;13.374;2022-10-16T11:36:47;101102.88;;;19.67;64.09
67015;BME280;1033;52.560;13.374;2022-10-16T11:39:21;101104.78;;;19.67;64.74
67015;BME280;1033;52.560;13.374;2022-10-16T11:41:55;101105.88;;;19.66;65.01
67015;BME280;1033;52.560;13.374;2022-10-16T11:44:35;101099.81;;;19.64;65.35
67015;BME280;1033;52.560;13.374;2022-10-16T11:47:19;101101.84;;;19.73;65.41
67015;BME280;1033;52.560;13.374;2022-10-16T11:50:20;101097.41;;;19.94;62.64
67015;BME280;1033;52.560;13.374;2022-10-16T11:52:55;101108.91;;;19.91;62.67
67015;BME280;1033;52.560;13.374;2022-10-16T11:55:31;101106.81;;;19.76;63.28
67015;BME280;1033;52.560;13.374;2022-10-16T11:58:05;101111.47;;;19.76;63.22
67015;BME280;1033;52.560;13.374;2022-10-16T12:00:42;101118.75;;;19.87;63.60
67015;BME280;1033;52.560;13.374;2022-10-16T12:03:21;101117.50;;;20.00;62.49
67015;BME280;1033;52.560;13.374;2022-10-16T12:06:18;101127.63;;;19.94;62.82
67015;BME280;1033;52.560;13.374;2022-10-16T12:08:52;101127.03;;;19.92;61.53
67015;BME280;1033;52.560;13.374;2022-10-16T12:11:33;101127.75;;;20.09;62.04
67015;BME280;1033;52.560;13.374;2022-10-16T12:14:35;101140.69;;;20.35;60.20
67015;BME280;1033;52.560;13.374;2022-10-16T12:17:26;101139.25;;;20.60;59.37
67015;BME280;1033;52.560;13.374;2022-10-16T12:20:24;101145.28;;;20.57;57.90
67015;BME280;1033;52.560;13.374;2022-10-16T12:22:56;101141.97;;;20.55;57.49
67015;BME280;1033;52.560;13.374;2022-10-16T12:25:28;101144.13;;;20.53;57.15
67015;BME280;1033;52.560;13.374;2022-10-16T12:28:00;101146.75;;;20.69;56.78
67015;BME280;1033;52.560;13.374;2022-10-16T12:30:34;101149.75;;;20.68;55.50
67015;BME280;1033;52.560;13.374;2022-10-16T12:33:05;101148.09;;;20.62;55.47
67015;BME280;1033;52.560;13.374;2022-10-16T12:35:43;101144.31;;;20.73;55.36
67015;BME280;1033;52.560;13.374;2022-10-16T12:38:17;101147.41;;;20.81;54.95
67015;BME280;1033;52.560;13.374;2022-10-16T12:40:55;101155.38;;;20.83;54.81
67015;BME280;1033;52.560;13.374;2022-10-16T12:43:36;101159.91;;;20.99;54.23
67015;BME280;1033;52.560;13.374;2022-10-16T12:46:23;101161.44;;;20.80;53.90
67015;BME280;1033;52.560;13.374;2022-10-16T12:48:52;101163.09;;;20.81;53.26
67015;BME280;1033;52.560;13.374;2022-10-16T12:51:36;101162.34;;;20.91;53.15
67015;BME280;1033;52.560;13.374;2022-10-16T12:54:13;101169.19;;;20.88;53.35
67015;BME280;1033;52.560;13.374;2022-10-16T12:56:53;101163.69;;;20.88;52.45
67015;BME280;1033;52.560;13.374;2022-10-16T12:59:34;101165.13;;;20.96;52.18
67015;BME280;1033;52.560;13.374;2022-10-16T13:02:29;101166.16;;;20.90;51.67
67015;BME280;1033;52.560;13.374;2022-10-16T13:05:15;101166.75;;;20.97;51.68
67015;BME280;1033;52.560;13.374;2022-10-16T13:07:56;101170.38;;;21.02;51.92
67015;BME280;1033;52.560;13.374;2022-10-16T13:10:33;101178.41;;;21.09;52.25
67015;BME280;1033;52.560;13.374;2022-10-16T13:13:22;101174.25;;;21.06;53.06
67015;BME280;1033;52.560;13.374;2022-10-16T13:18:59;101187.38;;;21.31;51.55
67015;BME280;1033;52.560;13.374;2022-10-16T13:21:39;101191.88;;;21.42;51.86
67015;BME280;1033;52.560;13.374;2022-10-16T13:24:22;101201.41;;;21.24;51.46
67015;BME280;1033;52.560;13.374;2022-10-16T13:26:59;101193.94;;;21.20;51.91
67015;BME280;1033;52.560;13.374;2022-10-16T13:29:34;101203.31;;;20.92;52.48